sensor_id;sensor_type;location;lat;lon;timestamp;P1;durP1;ratioP1;P2;durP2;ratioP2
65156;SDS011;52745;49.794;18.258;2022-11-21T00:00:38;30.05;;;13.00;;
65156;SDS011;52745;49.794;18.258;2022-11-21T00:03:05;27.63;;;12.77;;
65156;SDS011;52745;49.794;18.258;2022-11-21T00:05:32;32.15;;;14.07;;
65156;SDS011;52745;49.794;18.258;2022-11-21T00:07:58;29.27;;;12.15;;
65156;SDS011;52745;49.794;18.258;2022-11-21T00:10:25;28.50;;;13.18;;
65156;SDS011;52745;49.794;18.258;2022-11-21T00:12:52;29.95;;;12.90;;
65156;SDS011;52745;49.794;18.258;2022-11-21T00:15:23;28.77;;;13.75;;
65156;SDS011;52745;49.794;18.258;2022-11-21T00:17:51;30.05;;;13.38;;
65156;SDS011;52745;49.794;18.258;2022-11-21T00:20:18;30.98;;;13.73;;
65156;SDS011;52745;49.794;18.258;2022-11-21T00:22:46;34.10;;;14.15;;
65156;SDS011;52745;49.794;18.258;2022-11-21T00:25:14;30.67;;;13.20;;
65156;SDS011;52745;49.794;18.258;2022-11-21T00:27:40;29.33;;;14.48;;
65156;SDS011;52745;49.794;18.258;2022-11-21T00:30:08;33.28;;;14.10;;
65156;SDS011;52745;49.794;18.258;2022-11-21T00:32:35;30.92;;;13.43;;
65156;SDS011;52745;49.794;18.258;2022-11-21T00:35:02;31.40;;;14.02;;
65156;SDS011;52745;49.794;18.258;2022-11-21T00:37:30;33.22;;;13.75;;
65156;SDS011;52745;49.794;18.258;2022-11-21T00:39:57;31.95;;;14.07;;
65156;SDS011;52745;49.794;18.258;2022-11-21T00:42:23;32.75;;;14.65;;
65156;SDS011;52745;49.794;18.258;2022-11-21T00:44:50;34.10;;;14.02;;
65156;SDS011;52745;49.794;18.258;2022-11-21T00:47:16;34.17;;;14.95;;
65156;SDS011;52745;49.794;18.258;2022-11-21T00:49:43;33.53;;;14.57;;
65156;SDS011;52745;49.794;18.258;2022-11-21T00:52:09;32.72;;;14.63;;
65156;SDS011;52745;49.794;18.258;2022-11-21T00:54:36;33.72;;;14.35;;
65156;SDS011;52745;49.794;18.258;2022-11-21T00:57:03;35.13;;;15.32;;
65156;SDS011;52745;49.794;18.258;2022-11-21T00:59:29;35.13;;;15.70;;
65156;SDS011;52745;49.794;18.258;2022-11-21T01:01:56;35.25;;;14.85;;
65156;SDS011;52745;49.794;18.258;2022-11-21T01:04:22;35.40;;;15.32;;
65156;SDS011;52745;49.794;18.258;2022-11-21T01:06:49;38.03;;;15.95;;
65156;SDS011;52745;49.794;18.258;2022-11-21T01:09:15;31.52;;;14.80;;
65156;SDS011;52745;49.794;18.258;2022-11-21T01:11:42;35.78;;;14.55;;
65156;SDS011;52745;49.794;18.258;2022-11-21T01:14:08;35.78;;;15.68;;
65156;SDS011;52745;49.794;18.258;2022-11-21T01:16:34;36.85;;;14.35;;
65156;SDS011;52745;49.794;18.258;2022-11-21T01:19:01;35.70;;;14.93;;
65156;SDS011;52745;49.794;18.258;2022-11-21T01:21:28;33.55;;;14.52;;
65156;SDS011;52745;49.794;18.258;2022-11-21T01:23:59;36.72;;;16.23;;
65156;SDS011;52745;49.794;18.258;2022-11-21T01:26:27;34.60;;;14.55;;
65156;SDS011;52745;49.794;18.258;2022-11-21T01:28:56;36.90;;;14.88;;
65156;SDS011;52745;49.794;18.258;2022-11-21T01:31:27;37.70;;;15.63;;
65156;SDS011;52745;49.794;18.258;2022-11-21T01:33:56;41.65;;;16.70;;
65156;SDS011;52745;49.794;18.258;2022-11-21T01:36:27;35.40;;;15.77;;
65156;SDS011;52745;49.794;18.258;2022-11-21T01:38:59;36.03;;;15.30;;
65156;SDS011;52745;49.794;18.258;2022-11-21T01:41:36;39.88;;;16.50;;
65156;SDS011;52745;49.794;18.258;2022-11-21T01:44:18;39.90;;;17.25;;
65156;SDS011;52745;49.794;18.258;2022-11-21T01:46:46;42.25;;;16.73;;
65156;SDS011;52745;49.794;18.258;2022-11-21T01:49:21;38.78;;;17.33;;
65156;SDS011;52745;49.794;18.258;2022-11-21T01:54:21;39.15;;;17.52;;
65156;SDS011;52745;49.794;18.258;2022-11-21T01:59:42;45.42;;;18.85;;
65156;SDS011;52745;49.794;18.258;2022-11-21T02:02:14;44.22;;;19.00;;
65156;SDS011;52745;49.794;18.258;2022-11-21T02:04:43;43.70;;;19.52;;
65156;SDS011;52745;49.794;18.258;2022-11-21T02:07:11;43.08;;;18.52;;
65156;SDS011;52745;49.794;18.258;2022-11-21T02:09:40;48.47;;;19.13;;
65156;SDS011;52745;49.794;18.258;2022-11-21T02:12:12;45.53;;;19.40;;
65156;SDS011;52745;49.794;18.258;2022-11-21T02:14:44;44.67;;;19.55;;
65156;SDS011;52745;49.794;18.258;2022-11-21T02:17:12;44.05;;;18.48;;
65156;SDS011;52745;49.794;18.258;2022-11-21T02:19:43;43.75;;;18.48;;
65156;SDS011;52745;49.794;18.258;2022-11-21T02:22:15;45.45;;;19.50;;
65156;SDS011;52745;49.794;18.258;2022-11-21T02:27:34;43.78;;;18.75;;
65156;SDS011;52745;49.794;18.258;2022-11-21T02:30:02;48.25;;;20.30;;
65156;SDS011;52745;49.794;18.258;2022-11-21T02:32:32;45.35;;;19.70;;
65156;SDS011;52745;49.794;18.258;2022-11-21T02:35:01;46.85;;;20.75;;
65156;SDS011;52745;49.794;18.258;2022-11-21T02:37:27;49.63;;;20.05;;
65156;SDS011;52745;49.794;18.258;2022-11-21T02:39:55;49.05;;;19.38;;
65156;SDS011;52745;49.794;18.258;2022-11-21T02:42:44;49.92;;;19.25;;
65156;SDS011;52745;49.794;18.258;2022-11-21T02:47:51;43.17;;;19.90;;
65156;SDS011;52745;49.794;18.258;2022-11-21T02:52:50;48.53;;;20.10;;
65156;SDS011;52745;49.794;18.258;2022-11-21T02:55:16;51.85;;;19.85;;
65156;SDS011;52745;49.794;18.258;2022-11-21T02:57:43;44.30;;;20.17;;
65156;SDS011;52745;49.794;18.258;2022-11-21T03:00:09;44.90;;;19.70;;
65156;SDS011;52745;49.794;18.258;2022-11-21T03:02:36;47.92;;;19.88;;
65156;SDS011;52745;49.794;18.258;2022-11-21T03:05:04;48.25;;;20.00;;
65156;SDS011;52745;49.794;18.258;2022-11-21T03:07:32;46.70;;;19.73;;
65156;SDS011;52745;49.794;18.258;2022-11-21T03:09:59;45.85;;;19.88;;
65156;SDS011;52745;49.794;18.258;2022-11-21T03:12:25;47.13;;;18.88;;
65156;SDS011;52745;49.794;18.258;2022-11-21T03:14:52;46.20;;;18.40;;
65156;SDS011;52745;49.794;18.258;2022-11-21T03:17:18;43.95;;;19.80;;
65156;SDS011;52745;49.794;18.258;2022-11-21T03:19:45;41.47;;;18.90;;
65156;SDS011;52745;49.794;18.258;2022-11-21T03:22:12;45.67;;;19.10;;
65156;SDS011;52745;49.794;18.258;2022-11-21T03:24:39;46.03;;;19.33;;
65156;SDS011;52745;49.794;18.258;2022-11-21T03:27:06;42.45;;;18.15;;
65156;SDS011;52745;49.794;18.258;2022-11-21T03:29:32;43.28;;;18.40;;
65156;SDS011;52745;49.794;18.258;2022-11-21T03:31:59;46.42;;;19.55;;
65156;SDS011;52745;49.794;18.258;2022-11-21T03:34:25;43.20;;;19.15;;
65156;SDS011;52745;49.794;18.258;2022-11-21T03:36:52;41.63;;;18.20;;
65156;SDS011;52745;49.794;18.258;2022-11-21T03:39:19;46.50;;;18.98;;
65156;SDS011;52745;49.794;18.258;2022-11-21T03:41:45;44.80;;;19.30;;
65156;SDS011;52745;49.794;18.258;2022-11-21T03:44:12;43.20;;;19.27;;
65156;SDS011;52745;49.794;18.258;2022-11-21T03:46:40;42.90;;;17.95;;
65156;SDS011;52745;49.794;18.258;2022-11-21T03:49:11;38.38;;;17.92;;
65156;SDS011;52745;49.794;18.258;2022-11-21T03:51:39;43.17;;;18.55;;
65156;SDS011;52745;49.794;18.258;2022-11-21T03:54:05;39.20;;;18.70;;
65156;SDS011;52745;49.794;18.258;2022-11-21T03:56:32;35.38;;;17.17;;
65156;SDS011;52745;49.794;18.258;2022-11-21T03:58:59;38.88;;;17.60;;
65156;SDS011;52745;49.794;18.258;2022-11-21T04:01:26;39.95;;;17.30;;
65156;SDS011;52745;49.794;18.258;2022-11-21T04:03:53;43.13;;;17.33;;
65156;SDS011;52745;49.794;18.258;2022-11-21T04:06:20;37.92;;;17.63;;
65156;SDS011;52745;49.794;18.258;2022-11-21T04:08:48;37.58;;;17.40;;
65156;SDS011;52745;49.794;18.258;2022-11-21T04:11:15;39.22;;;17.20;;
65156;SDS011;52745;49.794;18.258;2022-11-21T04:13:42;38.42;;;17.02;;
65156;SDS011;52745;49.794;18.258;2022-11-21T04:16:08;41.40;;;18.23;;
65156;SDS011;52745;49.794;18.258;2022-11-21T04:18:35;44.60;;;18.15;;
65156;SDS011;52745;49.794;18.258;2022-11-21T04:21:04;41.00;;;17.80;;
65156;SDS011;52745;49.794;18.258;2022-11-21T04:23:32;38.30;;;16.95;;
65156;SDS011;52745;49.794;18.258;2022-11-21T04:25:58;41.47;;;17.70;;
65156;SDS011;52745;49.794;18.258;2022-11-21T04:28:25;37.35;;;16.77;;
65156;SDS011;52745;49.794;18.258;2022-11-21T04:30:52;45.65;;;18.35;;
65156;SDS011;52745;49.794;18.258;2022-11-21T04:33:18;42.58;;;18.25;;
65156;SDS011;52745;49.794;18.258;2022-11-21T04:35:45;39.40;;;18.23;;
65156;SDS011;52745;49.794;18.258;2022-11-21T04:38:12;34.95;;;17.33;;
65156;SDS011;52745;49.794;18.258;2022-11-21T04:40:39;43.15;;;18.55;;
65156;SDS011;52745;49.794;18.258;2022-11-21T04:43:06;41.20;;;17.17;;
65156;SDS011;52745;49.794;18.258;2022-11-21T04:45:32;45.10;;;18.65;;
65156;SDS011;52745;49.794;18.258;2022-11-21T04:47:59;43.40;;;19.13;;
65156;SDS011;52745;49.794;18.258;2022-11-21T04:50:26;43.53;;;18.35;;
65156;SDS011;52745;49.794;18.258;2022-11-21T04:52:53;46.42;;;19.88;;
65156;SDS011;52745;49.794;18.258;2022-11-21T04:55:26;40.42;;;17.75;;
65156;SDS011;52745;49.794;18.258;2022-11-21T05:00:22;33.28;;;15.38;;
65156;SDS011;52745;49.794;18.258;2022-11-21T05:02:49;36.83;;;16.73;;
65156;SDS011;52745;49.794;18.258;2022-11-21T05:05:15;48.47;;;21.50;;
65156;SDS011;52745;49.794;18.258;2022-11-21T05:07:42;35.58;;;16.58;;
65156;SDS011;52745;49.794;18.258;2022-11-21T05:10:08;36.45;;;16.48;;
65156;SDS011;52745;49.794;18.258;2022-11-21T05:12:35;41.05;;;18.17;;
65156;SDS011;52745;49.794;18.258;2022-11-21T05:15:20;39.95;;;17.52;;
65156;SDS011;52745;49.794;18.258;2022-11-21T05:17:47;38.90;;;17.45;;
65156;SDS011;52745;49.794;18.258;2022-11-21T05:20:13;44.28;;;18.52;;
65156;SDS011;52745;49.794;18.258;2022-11-21T05:22:40;45.85;;;18.90;;
65156;SDS011;52745;49.794;18.258;2022-11-21T05:25:06;38.70;;;17.90;;
65156;SDS011;52745;49.794;18.258;2022-11-21T05:27:33;47.22;;;20.27;;
65156;SDS011;52745;49.794;18.258;2022-11-21T05:30:00;41.55;;;18.13;;
65156;SDS011;52745;49.794;18.258;2022-11-21T05:32:26;41.33;;;17.08;;
65156;SDS011;52745;49.794;18.258;2022-11-21T05:34:52;40.10;;;17.38;;
65156;SDS011;52745;49.794;18.258;2022-11-21T05:37:19;36.70;;;15.90;;
65156;SDS011;52745;49.794;18.258;2022-11-21T05:39:46;38.03;;;16.63;;
65156;SDS011;52745;49.794;18.258;2022-11-21T05:42:13;36.17;;;16.65;;
65156;SDS011;52745;49.794;18.258;2022-11-21T05:44:39;60.10;;;27.67;;
65156;SDS011;52745;49.794;18.258;2022-11-21T05:47:06;43.30;;;18.65;;
65156;SDS011;52745;49.794;18.258;2022-11-21T05:49:32;36.33;;;15.95;;
65156;SDS011;52745;49.794;18.258;2022-11-21T05:51:59;33.70;;;16.38;;
65156;SDS011;52745;49.794;18.258;2022-11-21T05:54:25;40.20;;;16.50;;
65156;SDS011;52745;49.794;18.258;2022-11-21T05:56:52;34.33;;;14.65;;
65156;SDS011;52745;49.794;18.258;2022-11-21T05:59:18;34.05;;;15.88;;
65156;SDS011;52745;49.794;18.258;2022-11-21T06:01:45;36.88;;;16.42;;
65156;SDS011;52745;49.794;18.258;2022-11-21T06:04:30;33.70;;;15.13;;
65156;SDS011;52745;49.794;18.258;2022-11-21T06:06:58;36.80;;;16.83;;
65156;SDS011;52745;49.794;18.258;2022-11-21T06:09:24;67.90;;;28.58;;
65156;SDS011;52745;49.794;18.258;2022-11-21T06:11:51;74.60;;;31.20;;
65156;SDS011;52745;49.794;18.258;2022-11-21T06:14:18;72.88;;;33.08;;
65156;SDS011;52745;49.794;18.258;2022-11-21T06:16:44;63.92;;;29.88;;
65156;SDS011;52745;49.794;18.258;2022-11-21T06:19:11;58.72;;;24.65;;
65156;SDS011;52745;49.794;18.258;2022-11-21T06:21:37;52.20;;;23.33;;
65156;SDS011;52745;49.794;18.258;2022-11-21T06:24:04;40.28;;;19.05;;
65156;SDS011;52745;49.794;18.258;2022-11-21T06:26:31;49.78;;;22.55;;
65156;SDS011;52745;49.794;18.258;2022-11-21T06:28:57;47.70;;;21.55;;
65156;SDS011;52745;49.794;18.258;2022-11-21T06:31:25;46.90;;;18.35;;
65156;SDS011;52745;49.794;18.258;2022-11-21T06:33:55;42.63;;;18.58;;
65156;SDS011;52745;49.794;18.258;2022-11-21T06:36:24;47.92;;;21.63;;
65156;SDS011;52745;49.794;18.258;2022-11-21T06:38:51;39.05;;;17.45;;
65156;SDS011;52745;49.794;18.258;2022-11-21T06:41:23;41.25;;;18.83;;
65156;SDS011;52745;49.794;18.258;2022-11-21T06:43:51;38.03;;;17.02;;
65156;SDS011;52745;49.794;18.258;2022-11-21T06:46:18;39.67;;;17.73;;
65156;SDS011;52745;49.794;18.258;2022-11-21T06:48:44;39.25;;;17.33;;
65156;SDS011;52745;49.794;18.258;2022-11-21T06:51:18;38.55;;;18.52;;
65156;SDS011;52745;49.794;18.258;2022-11-21T06:53:52;36.45;;;17.17;;
65156;SDS011;52745;49.794;18.258;2022-11-21T06:56:24;40.15;;;17.52;;
65156;SDS011;52745;49.794;18.258;2022-11-21T06:58:51;37.58;;;17.92;;
65156;SDS011;52745;49.794;18.258;2022-11-21T07:01:18;35.55;;;16.80;;
65156;SDS011;52745;49.794;18.258;2022-11-21T07:03:44;34.83;;;16.02;;
65156;SDS011;52745;49.794;18.258;2022-11-21T07:06:11;33.25;;;15.55;;
65156;SDS011;52745;49.794;18.258;2022-11-21T07:08:37;32.05;;;15.90;;
65156;SDS011;52745;49.794;18.258;2022-11-21T07:11:06;33.65;;;15.10;;
65156;SDS011;52745;49.794;18.258;2022-11-21T07:13:34;33.28;;;15.77;;
65156;SDS011;52745;49.794;18.258;2022-11-21T07:16:03;30.30;;;15.00;;
65156;SDS011;52745;49.794;18.258;2022-11-21T07:18:29;30.02;;;15.25;;
65156;SDS011;52745;49.794;18.258;2022-11-21T07:21:00;34.75;;;15.65;;
65156;SDS011;52745;49.794;18.258;2022-11-21T07:23:28;35.53;;;15.13;;
65156;SDS011;52745;49.794;18.258;2022-11-21T07:25:58;36.15;;;16.13;;
65156;SDS011;52745;49.794;18.258;2022-11-21T07:28:27;30.98;;;14.80;;
65156;SDS011;52745;49.794;18.258;2022-11-21T07:30:55;34.78;;;15.93;;
65156;SDS011;52745;49.794;18.258;2022-11-21T07:33:22;31.42;;;14.90;;
65156;SDS011;52745;49.794;18.258;2022-11-21T07:35:49;28.90;;;15.35;;
65156;SDS011;52745;49.794;18.258;2022-11-21T07:38:16;31.38;;;15.98;;
65156;SDS011;52745;49.794;18.258;2022-11-21T07:40:43;31.55;;;15.07;;
65156;SDS011;52745;49.794;18.258;2022-11-21T07:43:09;32.78;;;16.58;;
65156;SDS011;52745;49.794;18.258;2022-11-21T07:45:36;34.08;;;15.23;;
65156;SDS011;52745;49.794;18.258;2022-11-21T07:48:04;34.42;;;15.35;;
65156;SDS011;52745;49.794;18.258;2022-11-21T07:50:32;30.45;;;15.27;;
65156;SDS011;52745;49.794;18.258;2022-11-21T07:53:00;34.53;;;15.95;;
65156;SDS011;52745;49.794;18.258;2022-11-21T07:55:28;32.58;;;15.80;;
65156;SDS011;52745;49.794;18.258;2022-11-21T07:58:05;34.88;;;15.98;;
65156;SDS011;52745;49.794;18.258;2022-11-21T08:00:34;31.67;;;15.20;;
65156;SDS011;52745;49.794;18.258;2022-11-21T08:03:03;30.02;;;14.85;;
65156;SDS011;52745;49.794;18.258;2022-11-21T08:05:30;28.17;;;14.25;;
65156;SDS011;52745;49.794;18.258;2022-11-21T08:07:57;28.13;;;13.57;;
65156;SDS011;52745;49.794;18.258;2022-11-21T08:10:23;28.05;;;13.23;;
65156;SDS011;52745;49.794;18.258;2022-11-21T08:12:49;20.98;;;10.27;;
65156;SDS011;52745;49.794;18.258;2022-11-21T08:15:16;20.25;;;10.40;;
65156;SDS011;52745;49.794;18.258;2022-11-21T08:17:43;17.67;;;9.10;;
65156;SDS011;52745;49.794;18.258;2022-11-21T08:20:09;17.77;;;8.48;;
65156;SDS011;52745;49.794;18.258;2022-11-21T08:22:42;16.38;;;7.20;;
65156;SDS011;52745;49.794;18.258;2022-11-21T08:25:09;13.18;;;7.70;;
65156;SDS011;52745;49.794;18.258;2022-11-21T08:27:36;14.25;;;7.38;;
65156;SDS011;52745;49.794;18.258;2022-11-21T08:30:05;14.35;;;7.65;;
65156;SDS011;52745;49.794;18.258;2022-11-21T08:32:32;14.82;;;7.63;;
65156;SDS011;52745;49.794;18.258;2022-11-21T08:34:59;12.50;;;7.18;;
65156;SDS011;52745;49.794;18.258;2022-11-21T08:37:26;12.20;;;6.68;;
65156;SDS011;52745;49.794;18.258;2022-11-21T08:39:54;12.27;;;6.18;;
65156;SDS011;52745;49.794;18.258;2022-11-21T08:42:23;13.90;;;6.80;;
65156;SDS011;52745;49.794;18.258;2022-11-21T08:44:51;12.50;;;6.13;;
65156;SDS011;52745;49.794;18.258;2022-11-21T08:47:17;12.32;;;5.93;;
65156;SDS011;52745;49.794;18.258;2022-11-21T08:49:46;14.73;;;6.57;;
65156;SDS011;52745;49.794;18.258;2022-11-21T08:52:13;10.50;;;5.72;;
65156;SDS011;52745;49.794;18.258;2022-11-21T08:54:43;11.52;;;6.30;;
65156;SDS011;52745;49.794;18.258;2022-11-21T08:57:10;9.38;;;5.70;;
65156;SDS011;52745;49.794;18.258;2022-11-21T08:59:36;11.77;;;6.50;;
65156;SDS011;52745;49.794;18.258;2022-11-21T09:02:03;11.00;;;5.60;;
65156;SDS011;52745;49.794;18.258;2022-11-21T09:04:29;10.27;;;6.05;;
65156;SDS011;52745;49.794;18.258;2022-11-21T09:06:56;12.73;;;5.53;;
65156;SDS011;52745;49.794;18.258;2022-11-21T09:09:22;11.30;;;5.97;;
65156;SDS011;52745;49.794;18.258;2022-11-21T09:11:49;12.38;;;6.85;;
65156;SDS011;52745;49.794;18.258;2022-11-21T09:14:15;11.38;;;5.40;;
65156;SDS011;52745;49.794;18.258;2022-11-21T09:17:00;10.80;;;5.75;;
65156;SDS011;52745;49.794;18.258;2022-11-21T09:19:45;10.05;;;5.38;;
65156;SDS011;52745;49.794;18.258;2022-11-21T09:22:12;10.77;;;5.97;;
65156;SDS011;52745;49.794;18.258;2022-11-21T09:24:38;8.63;;;5.10;;
65156;SDS011;52745;49.794;18.258;2022-11-21T09:27:05;11.40;;;5.68;;
65156;SDS011;52745;49.794;18.258;2022-11-21T09:29:31;9.55;;;5.57;;
65156;SDS011;52745;49.794;18.258;2022-11-21T09:31:57;10.90;;;5.75;;
65156;SDS011;52745;49.794;18.258;2022-11-21T09:34:24;11.57;;;5.75;;
65156;SDS011;52745;49.794;18.258;2022-11-21T09:36:51;12.88;;;6.07;;
65156;SDS011;52745;49.794;18.258;2022-11-21T09:39:17;10.10;;;5.85;;
65156;SDS011;52745;49.794;18.258;2022-11-21T09:47:22;10.35;;;5.65;;
65156;SDS011;52745;49.794;18.258;2022-11-21T09:52:36;9.90;;;5.50;;
65156;SDS011;52745;49.794;18.258;2022-11-21T09:55:12;11.18;;;6.07;;
65156;SDS011;52745;49.794;18.258;2022-11-21T09:58:08;9.18;;;5.07;;
65156;SDS011;52745;49.794;18.258;2022-11-21T10:00:45;12.35;;;6.03;;
65156;SDS011;52745;49.794;18.258;2022-11-21T10:03:15;10.88;;;5.80;;
65156;SDS011;52745;49.794;18.258;2022-11-21T10:05:46;9.77;;;5.65;;
65156;SDS011;52745;49.794;18.258;2022-11-21T10:10:59;11.07;;;6.13;;
65156;SDS011;52745;49.794;18.258;2022-11-21T10:14:01;11.00;;;5.90;;
65156;SDS011;52745;49.794;18.258;2022-11-21T10:19:48;9.93;;;5.30;;
65156;SDS011;52745;49.794;18.258;2022-11-21T10:25:36;12.07;;;5.68;;
65156;SDS011;52745;49.794;18.258;2022-11-21T10:28:07;9.88;;;5.15;;
65156;SDS011;52745;49.794;18.258;2022-11-21T10:30:43;10.27;;;5.25;;
65156;SDS011;52745;49.794;18.258;2022-11-21T10:33:16;8.65;;;4.93;;
65156;SDS011;52745;49.794;18.258;2022-11-21T10:35:58;7.72;;;4.30;;
65156;SDS011;52745;49.794;18.258;2022-11-21T10:38:39;6.97;;;4.28;;
65156;SDS011;52745;49.794;18.258;2022-11-21T10:41:12;6.70;;;4.70;;
65156;SDS011;52745;49.794;18.258;2022-11-21T10:43:58;9.18;;;4.65;;
65156;SDS011;52745;49.794;18.258;2022-11-21T10:46:57;10.15;;;4.97;;
65156;SDS011;52745;49.794;18.258;2022-11-21T10:49:25;7.22;;;4.75;;
65156;SDS011;52745;49.794;18.258;2022-11-21T10:52:05;10.52;;;4.90;;
65156;SDS011;52745;49.794;18.258;2022-11-21T10:57:30;5.80;;;3.78;;
65156;SDS011;52745;49.794;18.258;2022-11-21T11:02:38;8.55;;;4.47;;
65156;SDS011;52745;49.794;18.258;2022-11-21T11:07:41;7.65;;;4.50;;
65156;SDS011;52745;49.794;18.258;2022-11-21T11:10:21;8.63;;;4.38;;
65156;SDS011;52745;49.794;18.258;2022-11-21T11:12:48;7.95;;;4.57;;
65156;SDS011;52745;49.794;18.258;2022-11-21T11:15:35;8.15;;;4.75;;
65156;SDS011;52745;49.794;18.258;2022-11-21T11:18:04;8.70;;;4.40;;
65156;SDS011;52745;49.794;18.258;2022-11-21T11:20:39;9.75;;;5.18;;
65156;SDS011;52745;49.794;18.258;2022-11-21T11:23:18;7.72;;;4.70;;
65156;SDS011;52745;49.794;18.258;2022-11-21T11:25:51;7.50;;;4.43;;
65156;SDS011;52745;49.794;18.258;2022-11-21T11:28:20;7.28;;;4.63;;
65156;SDS011;52745;49.794;18.258;2022-11-21T11:30:51;8.95;;;4.88;;
65156;SDS011;52745;49.794;18.258;2022-11-21T11:35:56;7.47;;;4.60;;
65156;SDS011;52745;49.794;18.258;2022-11-21T11:38:32;7.97;;;3.97;;
65156;SDS011;52745;49.794;18.258;2022-11-21T11:40:59;7.93;;;4.53;;
65156;SDS011;52745;49.794;18.258;2022-11-21T11:43:35;6.75;;;4.13;;
65156;SDS011;52745;49.794;18.258;2022-11-21T11:46:49;6.28;;;4.60;;
65156;SDS011;52745;49.794;18.258;2022-11-21T11:49:43;8.00;;;4.40;;
65156;SDS011;52745;49.794;18.258;2022-11-21T11:52:35;9.80;;;4.80;;
65156;SDS011;52745;49.794;18.258;2022-11-21T11:55:16;6.80;;;4.35;;
65156;SDS011;52745;49.794;18.258;2022-11-21T11:57:54;7.07;;;4.03;;
65156;SDS011;52745;49.794;18.258;2022-11-21T12:00:28;7.97;;;4.57;;
65156;SDS011;52745;49.794;18.258;2022-11-21T12:05:42;7.13;;;4.55;;
65156;SDS011;52745;49.794;18.258;2022-11-21T12:08:20;8.73;;;4.50;;
65156;SDS011;52745;49.794;18.258;2022-11-21T12:11:21;6.82;;;4.05;;
65156;SDS011;52745;49.794;18.258;2022-11-21T12:17:20;8.35;;;4.10;;
65156;SDS011;52745;49.794;18.258;2022-11-21T12:19:52;7.10;;;4.25;;
65156;SDS011;52745;49.794;18.258;2022-11-21T12:22:19;7.88;;;4.43;;
65156;SDS011;52745;49.794;18.258;2022-11-21T12:24:47;6.97;;;4.07;;
65156;SDS011;52745;49.794;18.258;2022-11-21T12:27:22;5.47;;;3.40;;
65156;SDS011;52745;49.794;18.258;2022-11-21T12:33:02;5.78;;;3.97;;
65156;SDS011;52745;49.794;18.258;2022-11-21T12:52:58;6.00;;;3.70;;
65156;SDS011;52745;49.794;18.258;2022-11-21T12:55:57;7.80;;;4.10;;
65156;SDS011;52745;49.794;18.258;2022-11-21T12:58:34;7.68;;;4.38;;
65156;SDS011;52745;49.794;18.258;2022-11-21T13:03:58;7.63;;;4.05;;
65156;SDS011;52745;49.794;18.258;2022-11-21T13:06:32;9.43;;;4.53;;
65156;SDS011;52745;49.794;18.258;2022-11-21T13:09:18;6.07;;;3.67;;
65156;SDS011;52745;49.794;18.258;2022-11-21T13:11:53;9.32;;;4.63;;
65156;SDS011;52745;49.794;18.258;2022-11-21T13:22:51;6.20;;;3.35;;
65156;SDS011;52745;49.794;18.258;2022-11-21T13:28:21;6.40;;;3.47;;
65156;SDS011;52745;49.794;18.258;2022-11-21T13:36:12;5.22;;;3.10;;
65156;SDS011;52745;49.794;18.258;2022-11-21T13:42:08;6.70;;;3.30;;
65156;SDS011;52745;49.794;18.258;2022-11-21T13:49:39;6.85;;;3.50;;
65156;SDS011;52745;49.794;18.258;2022-11-21T13:52:31;7.50;;;3.75;;
65156;SDS011;52745;49.794;18.258;2022-11-21T13:55:06;8.15;;;3.38;;
65156;SDS011;52745;49.794;18.258;2022-11-21T13:57:53;7.47;;;4.00;;
65156;SDS011;52745;49.794;18.258;2022-11-21T14:12:02;7.60;;;4.07;;
65156;SDS011;52745;49.794;18.258;2022-11-21T14:14:38;9.15;;;4.40;;
65156;SDS011;52745;49.794;18.258;2022-11-21T14:23:17;8.88;;;4.25;;
65156;SDS011;52745;49.794;18.258;2022-11-21T14:28:24;14.40;;;4.40;;
65156;SDS011;52745;49.794;18.258;2022-11-21T14:31:08;7.70;;;3.88;;
65156;SDS011;52745;49.794;18.258;2022-11-21T14:33:36;8.55;;;4.28;;
65156;SDS011;52745;49.794;18.258;2022-11-21T14:36:17;8.80;;;4.60;;
65156;SDS011;52745;49.794;18.258;2022-11-21T14:38:44;9.55;;;4.45;;
65156;SDS011;52745;49.794;18.258;2022-11-21T14:46:22;10.07;;;4.80;;
65156;SDS011;52745;49.794;18.258;2022-11-21T14:48:50;10.60;;;5.47;;
65156;SDS011;52745;49.794;18.258;2022-11-21T14:51:20;14.02;;;5.70;;
65156;SDS011;52745;49.794;18.258;2022-11-21T14:53:51;9.80;;;5.15;;
65156;SDS011;52745;49.794;18.258;2022-11-21T14:56:22;13.32;;;5.57;;
65156;SDS011;52745;49.794;18.258;2022-11-21T14:58:53;12.35;;;5.30;;
65156;SDS011;52745;49.794;18.258;2022-11-21T15:01:32;9.63;;;5.70;;
65156;SDS011;52745;49.794;18.258;2022-11-21T15:04:00;9.27;;;4.80;;
65156;SDS011;52745;49.794;18.258;2022-11-21T15:06:28;11.80;;;5.63;;
65156;SDS011;52745;49.794;18.258;2022-11-21T15:08:58;12.30;;;5.25;;
65156;SDS011;52745;49.794;18.258;2022-11-21T15:11:31;10.75;;;5.35;;
65156;SDS011;52745;49.794;18.258;2022-11-21T15:14:04;10.25;;;5.57;;
65156;SDS011;52745;49.794;18.258;2022-11-21T15:16:41;12.07;;;6.18;;
65156;SDS011;52745;49.794;18.258;2022-11-21T15:19:08;11.38;;;5.47;;
65156;SDS011;52745;49.794;18.258;2022-11-21T15:21:36;12.80;;;5.90;;
65156;SDS011;52745;49.794;18.258;2022-11-21T15:27:28;10.13;;;5.25;;
65156;SDS011;52745;49.794;18.258;2022-11-21T15:29:59;8.55;;;5.38;;
65156;SDS011;52745;49.794;18.258;2022-11-21T15:32:27;9.73;;;5.75;;
65156;SDS011;52745;49.794;18.258;2022-11-21T15:34:53;9.68;;;5.60;;
65156;SDS011;52745;49.794;18.258;2022-11-21T15:37:20;10.70;;;6.68;;
65156;SDS011;52745;49.794;18.258;2022-11-21T15:39:48;9.18;;;5.57;;
65156;SDS011;52745;49.794;18.258;2022-11-21T15:44:58;10.65;;;5.38;;
65156;SDS011;52745;49.794;18.258;2022-11-21T15:47:27;9.40;;;5.68;;
65156;SDS011;52745;49.794;18.258;2022-11-21T15:49:54;10.95;;;5.65;;
65156;SDS011;52745;49.794;18.258;2022-11-21T15:52:21;14.07;;;6.00;;
65156;SDS011;52745;49.794;18.258;2022-11-21T15:54:48;10.15;;;5.80;;
65156;SDS011;52745;49.794;18.258;2022-11-21T15:57:15;9.43;;;5.85;;
65156;SDS011;52745;49.794;18.258;2022-11-21T15:59:43;9.68;;;6.07;;
65156;SDS011;52745;49.794;18.258;2022-11-21T16:02:13;10.73;;;5.80;;
65156;SDS011;52745;49.794;18.258;2022-11-21T16:04:40;11.38;;;6.30;;
65156;SDS011;52745;49.794;18.258;2022-11-21T16:07:07;10.45;;;5.97;;
65156;SDS011;52745;49.794;18.258;2022-11-21T16:09:33;9.40;;;5.93;;
65156;SDS011;52745;49.794;18.258;2022-11-21T16:12:01;11.25;;;6.05;;
65156;SDS011;52745;49.794;18.258;2022-11-21T16:14:27;12.30;;;6.70;;
65156;SDS011;52745;49.794;18.258;2022-11-21T16:16:54;11.75;;;6.68;;
65156;SDS011;52745;49.794;18.258;2022-11-21T16:19:20;13.20;;;7.25;;
65156;SDS011;52745;49.794;18.258;2022-11-21T16:21:47;10.93;;;6.40;;
65156;SDS011;52745;49.794;18.258;2022-11-21T16:24:14;10.35;;;6.20;;
65156;SDS011;52745;49.794;18.258;2022-11-21T16:26:40;17.00;;;7.15;;
65156;SDS011;52745;49.794;18.258;2022-11-21T16:29:08;11.68;;;7.05;;
65156;SDS011;52745;49.794;18.258;2022-11-21T16:31:36;13.85;;;6.85;;
65156;SDS011;52745;49.794;18.258;2022-11-21T16:34:03;13.95;;;6.85;;
65156;SDS011;52745;49.794;18.258;2022-11-21T16:36:30;11.98;;;6.28;;
65156;SDS011;52745;49.794;18.258;2022-11-21T16:38:57;13.30;;;6.47;;
65156;SDS011;52745;49.794;18.258;2022-11-21T16:41:24;13.40;;;7.00;;
65156;SDS011;52745;49.794;18.258;2022-11-21T16:43:51;17.23;;;8.13;;